sensor_id;sensor_type;location;lat;lon;timestamp;P1;durP1;ratioP1;P2;durP2;ratioP2
25045;SDS011;13044;49.304;12.840;2022-09-24T00:01:36;9.15;;;4.20;;
25045;SDS011;13044;49.304;12.840;2022-09-24T00:04:08;9.77;;;4.25;;
25045;SDS011;13044;49.304;12.840;2022-09-24T00:06:39;6.20;;;3.85;;
25045;SDS011;13044;49.304;12.840;2022-09-24T00:09:12;10.73;;;4.68;;
25045;SDS011;13044;49.304;12.840;2022-09-24T00:11:42;7.25;;;4.30;;
25045;SDS011;13044;49.304;12.840;2022-09-24T00:14:10;5.53;;;3.95;;
25045;SDS011;13044;49.304;12.840;2022-09-24T00:16:38;9.18;;;4.30;;
25045;SDS011;13044;49.304;12.840;2022-09-24T00:19:05;5.10;;;4.00;;
25045;SDS011;13044;49.304;12.840;2022-09-24T00:21:33;11.07;;;4.00;;
25045;SDS011;13044;49.304;12.840;2022-09-24T00:24:04;5.60;;;4.00;;
25045;SDS011;13044;49.304;12.840;2022-09-24T00:26:34;6.82;;;4.53;;
25045;SDS011;13044;49.304;12.840;2022-09-24T00:29:19;7.15;;;4.50;;
25045;SDS011;13044;49.304;12.840;2022-09-24T00:31:49;7.63;;;4.18;;
25045;SDS011;13044;49.304;12.840;2022-09-24T00:34:18;6.88;;;3.80;;
25045;SDS011;13044;49.304;12.840;2022-09-24T00:36:45;6.95;;;4.40;;
25045;SDS011;13044;49.304;12.840;2022-09-24T00:39:13;8.25;;;4.40;;
25045;SDS011;13044;49.304;12.840;2022-09-24T00:41:41;6.90;;;3.90;;
25045;SDS011;13044;49.304;12.840;2022-09-24T00:52:42;7.18;;;3.92;;
25045;SDS011;13044;49.304;12.840;2022-09-24T00:55:18;7.03;;;4.82;;
25045;SDS011;13044;49.304;12.840;2022-09-24T00:57:48;5.35;;;4.43;;
25045;SDS011;13044;49.304;12.840;2022-09-24T01:00:21;5.20;;;4.20;;
25045;SDS011;13044;49.304;12.840;2022-09-24T01:02:49;5.13;;;3.67;;
25045;SDS011;13044;49.304;12.840;2022-09-24T01:05:27;5.93;;;4.05;;
25045;SDS011;13044;49.304;12.840;2022-09-24T01:07:54;7.60;;;4.13;;
25045;SDS011;13044;49.304;12.840;2022-09-24T01:10:31;8.38;;;3.92;;
25045;SDS011;13044;49.304;12.840;2022-09-24T01:16:12;9.05;;;5.05;;
25045;SDS011;13044;49.304;12.840;2022-09-24T01:18:55;6.80;;;4.88;;
25045;SDS011;13044;49.304;12.840;2022-09-24T01:21:27;7.55;;;4.57;;
25045;SDS011;13044;49.304;12.840;2022-09-24T01:27:19;7.55;;;4.40;;
25045;SDS011;13044;49.304;12.840;2022-09-24T01:30:05;5.72;;;4.30;;
25045;SDS011;13044;49.304;12.840;2022-09-24T01:32:41;7.60;;;4.18;;
25045;SDS011;13044;49.304;12.840;2022-09-24T01:35:19;7.88;;;3.83;;
25045;SDS011;13044;49.304;12.840;2022-09-24T01:37:54;7.13;;;4.22;;
25045;SDS011;13044;49.304;12.840;2022-09-24T01:40:27;9.45;;;4.07;;
25045;SDS011;13044;49.304;12.840;2022-09-24T01:42:57;7.70;;;4.70;;
25045;SDS011;13044;49.304;12.840;2022-09-24T01:45:25;12.85;;;4.38;;
25045;SDS011;13044;49.304;12.840;2022-09-24T01:47:57;12.93;;;4.10;;
25045;SDS011;13044;49.304;12.840;2022-09-24T01:50:28;5.63;;;4.35;;
25045;SDS011;13044;49.304;12.840;2022-09-24T01:53:07;6.97;;;4.43;;
25045;SDS011;13044;49.304;12.840;2022-09-24T01:55:50;8.52;;;4.60;;
25045;SDS011;13044;49.304;12.840;2022-09-24T01:58:29;9.52;;;4.70;;
25045;SDS011;13044;49.304;12.840;2022-09-24T02:01:13;6.28;;;4.10;;
25045;SDS011;13044;49.304;12.840;2022-09-24T02:03:58;8.23;;;4.30;;
25045;SDS011;13044;49.304;12.840;2022-09-24T02:06:35;7.32;;;4.53;;
25045;SDS011;13044;49.304;12.840;2022-09-24T02:12:09;7.47;;;4.90;;
25045;SDS011;13044;49.304;12.840;2022-09-24T02:15:05;9.23;;;3.95;;
25045;SDS011;13044;49.304;12.840;2022-09-24T02:17:39;9.70;;;4.68;;
25045;SDS011;13044;49.304;12.840;2022-09-24T02:20:14;6.03;;;4.10;;
25045;SDS011;13044;49.304;12.840;2022-09-24T02:22:45;5.35;;;4.28;;
25045;SDS011;13044;49.304;12.840;2022-09-24T02:25:18;6.68;;;4.07;;
25045;SDS011;13044;49.304;12.840;2022-09-24T02:27:49;6.40;;;4.43;;
25045;SDS011;13044;49.304;12.840;2022-09-24T02:30:16;7.50;;;4.00;;
25045;SDS011;13044;49.304;12.840;2022-09-24T02:32:43;9.00;;;4.63;;
25045;SDS011;13044;49.304;12.840;2022-09-24T02:35:11;6.63;;;4.28;;
25045;SDS011;13044;49.304;12.840;2022-09-24T02:37:42;5.53;;;4.10;;
25045;SDS011;13044;49.304;12.840;2022-09-24T02:40:10;5.43;;;4.05;;
25045;SDS011;13044;49.304;12.840;2022-09-24T02:46:40;6.78;;;4.40;;
25045;SDS011;13044;49.304;12.840;2022-09-24T02:49:09;9.70;;;4.40;;
25045;SDS011;13044;49.304;12.840;2022-09-24T02:51:36;5.80;;;3.72;;
25045;SDS011;13044;49.304;12.840;2022-09-24T02:54:04;5.68;;;4.00;;
25045;SDS011;13044;49.304;12.840;2022-09-24T02:56:32;6.63;;;4.18;;
25045;SDS011;13044;49.304;12.840;2022-09-24T02:58:59;5.95;;;4.32;;
25045;SDS011;13044;49.304;12.840;2022-09-24T03:01:30;5.10;;;3.97;;
25045;SDS011;13044;49.304;12.840;2022-09-24T03:03:59;5.35;;;3.95;;
25045;SDS011;13044;49.304;12.840;2022-09-24T03:06:27;5.15;;;4.07;;
25045;SDS011;13044;49.304;12.840;2022-09-24T03:08:55;10.10;;;4.40;;
25045;SDS011;13044;49.304;12.840;2022-09-24T03:11:22;6.28;;;4.70;;
25045;SDS011;13044;49.304;12.840;2022-09-24T03:13:50;8.10;;;4.35;;
25045;SDS011;13044;49.304;12.840;2022-09-24T03:16:17;9.65;;;4.20;;
25045;SDS011;13044;49.304;12.840;2022-09-24T03:18:45;7.15;;;4.82;;
25045;SDS011;13044;49.304;12.840;2022-09-24T03:21:15;7.43;;;4.30;;
25045;SDS011;13044;49.304;12.840;2022-09-24T03:23:45;7.38;;;4.50;;
25045;SDS011;13044;49.304;12.840;2022-09-24T03:26:12;5.75;;;4.05;;
25045;SDS011;13044;49.304;12.840;2022-09-24T03:28:39;9.52;;;4.80;;
25045;SDS011;13044;49.304;12.840;2022-09-24T03:31:06;5.50;;;4.45;;
25045;SDS011;13044;49.304;12.840;2022-09-24T03:33:35;9.70;;;4.90;;
25045;SDS011;13044;49.304;12.840;2022-09-24T03:36:09;8.00;;;4.63;;
25045;SDS011;13044;49.304;12.840;2022-09-24T03:41:09;6.45;;;4.47;;
25045;SDS011;13044;49.304;12.840;2022-09-24T03:43:37;6.75;;;4.30;;
25045;SDS011;13044;49.304;12.840;2022-09-24T03:46:05;8.73;;;4.30;;
25045;SDS011;13044;49.304;12.840;2022-09-24T03:48:34;5.80;;;4.15;;
25045;SDS011;13044;49.304;12.840;2022-09-24T03:51:04;8.13;;;4.13;;
25045;SDS011;13044;49.304;12.840;2022-09-24T03:53:34;5.78;;;4.53;;
25045;SDS011;13044;49.304;12.840;2022-09-24T03:56:01;10.80;;;4.63;;
25045;SDS011;13044;49.304;12.840;2022-09-24T03:58:31;7.65;;;4.78;;
25045;SDS011;13044;49.304;12.840;2022-09-24T04:01:01;5.65;;;4.22;;
25045;SDS011;13044;49.304;12.840;2022-09-24T04:03:28;8.50;;;4.40;;
25045;SDS011;13044;49.304;12.840;2022-09-24T04:05:56;5.20;;;4.03;;
25045;SDS011;13044;49.304;12.840;2022-09-24T04:08:23;7.80;;;4.13;;
25045;SDS011;13044;49.304;12.840;2022-09-24T04:10:51;5.85;;;4.00;;
25045;SDS011;13044;49.304;12.840;2022-09-24T04:13:18;5.72;;;4.07;;
25045;SDS011;13044;49.304;12.840;2022-09-24T04:15:45;6.13;;;3.92;;
25045;SDS011;13044;49.304;12.840;2022-09-24T04:18:14;5.70;;;4.38;;
25045;SDS011;13044;49.304;12.840;2022-09-24T04:20:41;8.68;;;4.70;;
25045;SDS011;13044;49.304;12.840;2022-09-24T04:23:09;6.97;;;3.92;;
25045;SDS011;13044;49.304;12.840;2022-09-24T04:25:36;5.43;;;4.22;;
25045;SDS011;13044;49.304;12.840;2022-09-24T04:28:06;6.28;;;4.47;;
25045;SDS011;13044;49.304;12.840;2022-09-24T04:30:36;8.93;;;4.03;;
25045;SDS011;13044;49.304;12.840;2022-09-24T04:33:03;9.45;;;4.68;;
25045;SDS011;13044;49.304;12.840;2022-09-24T04:35:32;8.57;;;4.43;;
25045;SDS011;13044;49.304;12.840;2022-09-24T04:38:02;6.10;;;5.00;;
25045;SDS011;13044;49.304;12.840;2022-09-24T04:40:30;5.03;;;4.30;;
25045;SDS011;13044;49.304;12.840;2022-09-24T04:42:57;8.90;;;4.90;;
25045;SDS011;13044;49.304;12.840;2022-09-24T04:45:24;10.13;;;5.35;;
25045;SDS011;13044;49.304;12.840;2022-09-24T04:47:51;13.82;;;5.53;;
25045;SDS011;13044;49.304;12.840;2022-09-24T04:50:23;5.40;;;4.50;;
25045;SDS011;13044;49.304;12.840;2022-09-24T04:52:58;5.95;;;4.65;;
25045;SDS011;13044;49.304;12.840;2022-09-24T04:55:29;6.18;;;4.32;;
25045;SDS011;13044;49.304;12.840;2022-09-24T04:57:57;7.72;;;4.65;;
25045;SDS011;13044;49.304;12.840;2022-09-24T05:00:24;7.75;;;4.70;;
25045;SDS011;13044;49.304;12.840;2022-09-24T05:02:55;13.57;;;5.10;;
25045;SDS011;13044;49.304;12.840;2022-09-24T05:05:29;6.43;;;5.13;;
25045;SDS011;13044;49.304;12.840;2022-09-24T05:07:58;8.23;;;4.65;;
25045;SDS011;13044;49.304;12.840;2022-09-24T05:10:27;7.65;;;4.95;;
25045;SDS011;13044;49.304;12.840;2022-09-24T05:12:56;5.22;;;4.30;;
25045;SDS011;13044;49.304;12.840;2022-09-24T05:15:22;5.22;;;4.10;;
25045;SDS011;13044;49.304;12.840;2022-09-24T05:17:49;5.68;;;3.95;;
25045;SDS011;13044;49.304;12.840;2022-09-24T05:20:16;11.23;;;5.72;;
25045;SDS011;13044;49.304;12.840;2022-09-24T05:22:44;11.32;;;5.03;;
25045;SDS011;13044;49.304;12.840;2022-09-24T05:25:13;19.08;;;5.80;;
25045;SDS011;13044;49.304;12.840;2022-09-24T05:27:42;13.60;;;5.43;;
25045;SDS011;13044;49.304;12.840;2022-09-24T05:30:21;10.65;;;5.28;;
25045;SDS011;13044;49.304;12.840;2022-09-24T05:32:50;12.05;;;5.65;;
25045;SDS011;13044;49.304;12.840;2022-09-24T05:35:20;13.20;;;5.50;;
25045;SDS011;13044;49.304;12.840;2022-09-24T05:37:49;7.50;;;5.30;;
25045;SDS011;13044;49.304;12.840;2022-09-24T05:40:19;10.55;;;5.60;;
25045;SDS011;13044;49.304;12.840;2022-09-24T05:43:05;8.77;;;5.75;;
25045;SDS011;13044;49.304;12.840;2022-09-24T05:45:32;10.38;;;6.47;;
25045;SDS011;13044;49.304;12.840;2022-09-24T05:47:59;9.88;;;6.45;;
25045;SDS011;13044;49.304;12.840;2022-09-24T05:50:26;14.00;;;7.00;;
25045;SDS011;13044;49.304;12.840;2022-09-24T05:52:53;10.65;;;6.93;;
25045;SDS011;13044;49.304;12.840;2022-09-24T05:55:20;11.00;;;6.90;;
25045;SDS011;13044;49.304;12.840;2022-09-24T05:57:47;10.88;;;7.25;;
25045;SDS011;13044;49.304;12.840;2022-09-24T06:00:14;18.80;;;6.75;;
25045;SDS011;13044;49.304;12.840;2022-09-24T06:02:41;9.15;;;6.57;;
25045;SDS011;13044;49.304;12.840;2022-09-24T06:05:08;9.30;;;5.82;;
25045;SDS011;13044;49.304;12.840;2022-09-24T06:07:36;9.85;;;5.53;;
25045;SDS011;13044;49.304;12.840;2022-09-24T06:10:03;10.98;;;6.30;;
25045;SDS011;13044;49.304;12.840;2022-09-24T06:12:32;7.68;;;5.60;;
25045;SDS011;13044;49.304;12.840;2022-09-24T06:15:02;9.70;;;5.82;;
25045;SDS011;13044;49.304;12.840;2022-09-24T06:17:29;8.70;;;5.47;;
25045;SDS011;13044;49.304;12.840;2022-09-24T06:19:57;9.43;;;5.82;;
25045;SDS011;13044;49.304;12.840;2022-09-24T06:22:24;9.52;;;6.40;;
25045;SDS011;13044;49.304;12.840;2022-09-24T06:24:54;13.80;;;6.55;;
25045;SDS011;13044;49.304;12.840;2022-09-24T06:27:21;12.68;;;8.25;;
25045;SDS011;13044;49.304;12.840;2022-09-24T06:29:47;19.08;;;8.30;;
25045;SDS011;13044;49.304;12.840;2022-09-24T06:32:14;14.40;;;7.65;;
25045;SDS011;13044;49.304;12.840;2022-09-24T06:34:44;10.85;;;6.75;;
25045;SDS011;13044;49.304;12.840;2022-09-24T06:37:12;10.95;;;7.57;;
25045;SDS011;13044;49.304;12.840;2022-09-24T06:39:39;11.25;;;6.63;;
25045;SDS011;13044;49.304;12.840;2022-09-24T06:42:05;11.45;;;8.70;;
25045;SDS011;13044;49.304;12.840;2022-09-24T06:44:33;13.95;;;8.63;;
25045;SDS011;13044;49.304;12.840;2022-09-24T06:47:00;9.88;;;6.70;;
25045;SDS011;13044;49.304;12.840;2022-09-24T06:49:27;12.30;;;7.07;;
25045;SDS011;13044;49.304;12.840;2022-09-24T06:51:59;10.18;;;6.78;;
25045;SDS011;13044;49.304;12.840;2022-09-24T06:54:27;10.15;;;6.38;;
25045;SDS011;13044;49.304;12.840;2022-09-24T06:56:54;11.63;;;6.63;;
25045;SDS011;13044;49.304;12.840;2022-09-24T06:59:20;13.93;;;6.60;;
25045;SDS011;13044;49.304;12.840;2022-09-24T07:01:47;11.23;;;5.47;;
25045;SDS011;13044;49.304;12.840;2022-09-24T07:04:14;10.50;;;6.03;;
25045;SDS011;13044;49.304;12.840;2022-09-24T07:06:41;8.93;;;5.45;;
25045;SDS011;13044;49.304;12.840;2022-09-24T07:09:26;10.05;;;5.65;;
25045;SDS011;13044;49.304;12.840;2022-09-24T07:11:53;8.27;;;5.80;;
25045;SDS011;13044;49.304;12.840;2022-09-24T07:14:22;9.68;;;6.25;;
25045;SDS011;13044;49.304;12.840;2022-09-24T07:16:48;7.22;;;5.40;;
25045;SDS011;13044;49.304;12.840;2022-09-24T07:19:15;9.93;;;5.32;;
25045;SDS011;13044;49.304;12.840;2022-09-24T07:21:42;9.55;;;6.03;;
25045;SDS011;13044;49.304;12.840;2022-09-24T07:24:09;11.30;;;6.63;;
25045;SDS011;13044;49.304;12.840;2022-09-24T07:26:35;11.48;;;5.90;;
25045;SDS011;13044;49.304;12.840;2022-09-24T07:29:02;9.20;;;6.00;;
25045;SDS011;13044;49.304;12.840;2022-09-24T07:31:29;10.02;;;5.72;;
25045;SDS011;13044;49.304;12.840;2022-09-24T07:33:56;10.80;;;5.47;;
25045;SDS011;13044;49.304;12.840;2022-09-24T07:36:23;9.35;;;6.22;;
25045;SDS011;13044;49.304;12.840;2022-09-24T07:38:50;10.93;;;6.68;;
25045;SDS011;13044;49.304;12.840;2022-09-24T07:41:17;11.25;;;6.78;;
25045;SDS011;13044;49.304;12.840;2022-09-24T07:43:45;7.65;;;5.85;;
25045;SDS011;13044;49.304;12.840;2022-09-24T07:46:12;9.32;;;6.07;;
25045;SDS011;13044;49.304;12.840;2022-09-24T07:48:39;13.25;;;6.22;;
25045;SDS011;13044;49.304;12.840;2022-09-24T07:51:09;9.63;;;6.05;;
25045;SDS011;13044;49.304;12.840;2022-09-24T07:53:36;17.10;;;6.07;;
25045;SDS011;13044;49.304;12.840;2022-09-24T07:56:03;9.25;;;6.88;;
25045;SDS011;13044;49.304;12.840;2022-09-24T07:58:30;8.88;;;6.55;;
25045;SDS011;13044;49.304;12.840;2022-09-24T08:00:58;10.80;;;6.85;;
25045;SDS011;13044;49.304;12.840;2022-09-24T08:03:26;8.02;;;6.25;;
25045;SDS011;13044;49.304;12.840;2022-09-24T08:05:53;8.13;;;5.85;;
25045;SDS011;13044;49.304;12.840;2022-09-24T08:08:24;8.65;;;6.38;;
25045;SDS011;13044;49.304;12.840;2022-09-24T08:10:52;11.52;;;6.30;;
25045;SDS011;13044;49.304;12.840;2022-09-24T08:13:19;11.32;;;4.93;;
25045;SDS011;13044;49.304;12.840;2022-09-24T08:15:59;7.00;;;5.38;;
25045;SDS011;13044;49.304;12.840;2022-09-24T08:18:27;8.93;;;5.10;;
25045;SDS011;13044;49.304;12.840;2022-09-24T08:21:06;8.82;;;5.60;;
25045;SDS011;13044;49.304;12.840;2022-09-24T08:23:37;9.00;;;5.00;;
25045;SDS011;13044;49.304;12.840;2022-09-24T08:26:10;8.15;;;4.68;;
25045;SDS011;13044;49.304;12.840;2022-09-24T08:28:38;6.15;;;4.78;;
25045;SDS011;13044;49.304;12.840;2022-09-24T08:31:07;8.77;;;4.75;;
25045;SDS011;13044;49.304;12.840;2022-09-24T08:33:38;9.48;;;5.45;;
25045;SDS011;13044;49.304;12.840;2022-09-24T08:36:06;10.82;;;5.65;;
25045;SDS011;13044;49.304;12.840;2022-09-24T08:38:34;7.85;;;6.00;;
25045;SDS011;13044;49.304;12.840;2022-09-24T08:43:55;7.82;;;5.57;;
25045;SDS011;13044;49.304;12.840;2022-09-24T08:46:38;8.75;;;5.13;;
25045;SDS011;13044;49.304;12.840;2022-09-24T08:49:30;8.82;;;4.85;;
25045;SDS011;13044;49.304;12.840;2022-09-24T08:52:25;5.63;;;4.80;;
25045;SDS011;13044;49.304;12.840;2022-09-24T08:55:17;5.80;;;4.50;;
25045;SDS011;13044;49.304;12.840;2022-09-24T09:03:52;6.53;;;4.72;;
25045;SDS011;13044;49.304;12.840;2022-09-24T09:06:39;6.75;;;3.70;;
25045;SDS011;13044;49.304;12.840;2022-09-24T09:09:40;8.30;;;5.03;;
25045;SDS011;13044;49.304;12.840;2022-09-24T09:12:24;7.28;;;4.78;;
25045;SDS011;13044;49.304;12.840;2022-09-24T09:17:42;5.85;;;4.85;;
25045;SDS011;13044;49.304;12.840;2022-09-24T09:20:18;6.43;;;4.80;;
25045;SDS011;13044;49.304;12.840;2022-09-24T09:22:50;5.32;;;3.58;;
25045;SDS011;13044;49.304;12.840;2022-09-24T09:25:20;9.50;;;4.50;;
25045;SDS011;13044;49.304;12.840;2022-09-24T09:27:54;6.38;;;4.25;;
25045;SDS011;13044;49.304;12.840;2022-09-24T09:30:44;4.68;;;4.05;;
25045;SDS011;13044;49.304;12.840;2022-09-24T09:33:46;5.40;;;4.07;;
25045;SDS011;13044;49.304;12.840;2022-09-24T09:42:24;6.97;;;4.07;;
25045;SDS011;13044;49.304;12.840;2022-09-24T09:45:01;11.23;;;3.63;;
25045;SDS011;13044;49.304;12.840;2022-09-24T09:47:58;5.07;;;3.58;;
25045;SDS011;13044;49.304;12.840;2022-09-24T09:53:03;5.60;;;3.75;;
25045;SDS011;13044;49.304;12.840;2022-09-24T09:55:34;6.50;;;3.78;;
25045;SDS011;13044;49.304;12.840;2022-09-24T10:00:40;5.43;;;4.18;;
25045;SDS011;13044;49.304;12.840;2022-09-24T10:03:21;6.65;;;3.80;;
25045;SDS011;13044;49.304;12.840;2022-09-24T10:06:01;8.98;;;3.47;;
25045;SDS011;13044;49.304;12.840;2022-09-24T10:08:31;8.07;;;3.97;;
25045;SDS011;13044;49.304;12.840;2022-09-24T10:10:58;7.80;;;3.17;;
25045;SDS011;13044;49.304;12.840;2022-09-24T10:13:28;5.20;;;3.67;;
25045;SDS011;13044;49.304;12.840;2022-09-24T10:15:58;7.38;;;4.35;;
25045;SDS011;13044;49.304;12.840;2022-09-24T10:21:02;5.90;;;3.85;;
25045;SDS011;13044;49.304;12.840;2022-09-24T10:23:35;7.90;;;3.60;;
25045;SDS011;13044;49.304;12.840;2022-09-24T10:26:09;6.80;;;3.40;;
25045;SDS011;13044;49.304;12.840;2022-09-24T10:28:45;6.28;;;4.13;;
25045;SDS011;13044;49.304;12.840;2022-09-24T10:31:34;10.52;;;3.60;;
25045;SDS011;13044;49.304;12.840;2022-09-24T10:34:04;4.28;;;3.30;;
25045;SDS011;13044;49.304;12.840;2022-09-24T10:36:49;7.45;;;4.05;;
25045;SDS011;13044;49.304;12.840;2022-09-24T10:39:25;5.45;;;3.58;;
25045;SDS011;13044;49.304;12.840;2022-09-24T10:41:54;9.40;;;3.67;;
25045;SDS011;13044;49.304;12.840;2022-09-24T10:44:22;8.90;;;4.15;;
25045;SDS011;13044;49.304;12.840;2022-09-24T10:50:06;7.50;;;4.35;;
25045;SDS011;13044;49.304;12.840;2022-09-24T10:53:02;6.90;;;4.03;;
25045;SDS011;13044;49.304;12.840;2022-09-24T11:01:47;4.85;;;3.60;;
25045;SDS011;13044;49.304;12.840;2022-09-24T11:10:27;5.75;;;4.00;;
25045;SDS011;13044;49.304;12.840;2022-09-24T11:16:39;5.50;;;4.18;;
25045;SDS011;13044;49.304;12.840;2022-09-24T11:19:49;7.60;;;4.30;;
25045;SDS011;13044;49.304;12.840;2022-09-24T11:31:53;5.05;;;3.55;;
25045;SDS011;13044;49.304;12.840;2022-09-24T11:54:51;9.02;;;4.65;;
25045;SDS011;13044;49.304;12.840;2022-09-24T11:57:48;9.15;;;5.03;;
25045;SDS011;13044;49.304;12.840;2022-09-24T12:00:26;7.38;;;5.05;;
25045;SDS011;13044;49.304;12.840;2022-09-24T12:03:08;6.47;;;4.63;;
25045;SDS011;13044;49.304;12.840;2022-09-24T12:08:30;5.15;;;4.03;;
25045;SDS011;13044;49.304;12.840;2022-09-24T12:13:54;8.57;;;4.32;;
25045;SDS011;13044;49.304;12.840;2022-09-24T12:16:30;5.80;;;4.70;;
25045;SDS011;13044;49.304;12.840;2022-09-24T12:22:03;7.40;;;5.07;;
25045;SDS011;13044;49.304;12.840;2022-09-24T12:24:38;7.93;;;4.63;;
25045;SDS011;13044;49.304;12.840;2022-09-24T12:27:24;8.32;;;4.97;;
25045;SDS011;13044;49.304;12.840;2022-09-24T12:30:14;9.00;;;5.53;;
25045;SDS011;13044;49.304;12.840;2022-09-24T12:33:11;7.35;;;5.25;;
25045;SDS011;13044;49.304;12.840;2022-09-24T12:38:52;6.25;;;5.13;;
25045;SDS011;13044;49.304;12.840;2022-09-24T12:41:32;6.90;;;5.13;;
25045;SDS011;13044;49.304;12.840;2022-09-24T12:44:12;11.48;;;5.55;;
25045;SDS011;13044;49.304;12.840;2022-09-24T12:47:13;6.30;;;4.45;;
25045;SDS011;13044;49.304;12.840;2022-09-24T12:49:58;8.95;;;5.40;;
25045;SDS011;13044;49.304;12.840;2022-09-24T12:52:33;6.25;;;5.30;;
25045;SDS011;13044;49.304;12.840;2022-09-24T12:55:17;7.78;;;5.25;;
25045;SDS011;13044;49.304;12.840;2022-09-24T12:57:57;7.50;;;5.22;;
25045;SDS011;13044;49.304;12.840;2022-09-24T13:01:04;7.53;;;4.60;;
25045;SDS011;13044;49.304;12.840;2022-09-24T13:04:27;10.63;;;5.28;;
25045;SDS011;13044;49.304;12.840;2022-09-24T13:06:47;16.08;;;5.18;;
25045;SDS011;13044;49.304;12.840;2022-09-24T13:18:53;8.43;;;5.00;;
25045;SDS011;13044;49.304;12.840;2022-09-24T13:21:24;9.82;;;5.10;;
25045;SDS011;13044;49.304;12.840;2022-09-24T13:23:53;6.72;;;5.00;;
25045;SDS011;13044;49.304;12.840;2022-09-24T13:28:51;6.00;;;4.93;;
25045;SDS011;13044;49.304;12.840;2022-09-24T13:31:29;11.98;;;5.22;;
25045;SDS011;13044;49.304;12.840;2022-09-24T13:34:26;28.00;;;13.10;;
25045;SDS011;13044;49.304;12.840;2022-09-24T13:37:01;10.20;;;5.70;;
25045;SDS011;13044;49.304;12.840;2022-09-24T13:45:13;10.77;;;5.95;;
25045;SDS011;13044;49.304;12.840;2022-09-24T13:56:13;10.93;;;6.25;;
25045;SDS011;13044;49.304;12.840;2022-09-24T13:58:43;8.93;;;6.25;;
25045;SDS011;13044;49.304;12.840;2022-09-24T14:01:23;15.00;;;6.07;;
25045;SDS011;13044;49.304;12.840;2022-09-24T14:04:18;9.98;;;6.20;;
25045;SDS011;13044;49.304;12.840;2022-09-24T14:06:51;8.88;;;5.95;;
25045;SDS011;13044;49.304;12.840;2022-09-24T14:11:59;14.85;;;5.70;;
25045;SDS011;13044;49.304;12.840;2022-09-24T14:14:51;14.10;;;6.80;;
25045;SDS011;13044;49.304;12.840;2022-09-24T14:17:23;11.82;;;8.23;;
25045;SDS011;13044;49.304;12.840;2022-09-24T14:19:54;11.73;;;7.57;;
25045;SDS011;13044;49.304;12.840;2022-09-24T14:22:30;14.52;;;8.38;;
25045;SDS011;13044;49.304;12.840;2022-09-24T14:25:06;10.00;;;6.82;;
25045;SDS011;13044;49.304;12.840;2022-09-24T14:27:39;9.82;;;7.40;;
25045;SDS011;13044;49.304;12.840;2022-09-24T14:30:18;11.77;;;7.97;;
25045;SDS011;13044;49.304;12.840;2022-09-24T14:32:58;14.63;;;8.13;;
25045;SDS011;13044;49.304;12.840;2022-09-24T14:35:39;15.05;;;8.90;;
25045;SDS011;13044;49.304;12.840;2022-09-24T14:38:15;11.32;;;7.78;;
25045;SDS011;13044;49.304;12.840;2022-09-24T14:40:53;12.70;;;7.88;;
25045;SDS011;13044;49.304;12.840;2022-09-24T14:43:27;15.63;;;8.50;;
25045;SDS011;13044;49.304;12.840;2022-09-24T14:46:17;12.55;;;8.88;;
25045;SDS011;13044;49.304;12.840;2022-09-24T14:48:49;15.05;;;9.18;;
25045;SDS011;13044;49.304;12.840;2022-09-24T14:51:27;13.00;;;8.40;;
25045;SDS011;13044;49.304;12.840;2022-09-24T14:54:00;11.10;;;8.13;;
25045;SDS011;13044;49.304;12.840;2022-09-24T14:56:47;13.27;;;9.05;;
25045;SDS011;13044;49.304;12.840;2022-09-24T14:59:15;12.93;;;8.45;;
25045;SDS011;13044;49.304;12.840;2022-09-24T15:04:55;14.38;;;8.80;;
25045;SDS011;13044;49.304;12.840;2022-09-24T15:07:32;13.55;;;9.38;;
25045;SDS011;13044;49.304;12.840;2022-09-24T15:10:03;15.38;;;9.75;;
25045;SDS011;13044;49.304;12.840;2022-09-24T15:12:32;19.83;;;12.68;;
25045;SDS011;13044;49.304;12.840;2022-09-24T15:17:43;18.48;;;13.35;;
25045;SDS011;13044;49.304;12.840;2022-09-24T15:20:12;17.35;;;12.38;;
25045;SDS011;13044;49.304;12.840;2022-09-24T15:22:39;16.98;;;11.07;;
25045;SDS011;13044;49.304;12.840;2022-09-24T15:25:08;18.98;;;11.10;;
25045;SDS011;13044;49.304;12.840;2022-09-24T15:27:40;19.45;;;10.07;;
25045;SDS011;13044;49.304;12.840;2022-09-24T15:30:10;18.15;;;10.30;;
25045;SDS011;13044;49.304;12.840;2022-09-24T15:32:44;33.85;;;17.30;;
25045;SDS011;13044;49.304;12.840;2022-09-24T15:35:13;50.88;;;27.10;;
25045;SDS011;13044;49.304;12.840;2022-09-24T15:37:41;34.08;;;20.13;;
25045;SDS011;13044;49.304;12.840;2022-09-24T15:40:19;27.92;;;17.20;;
25045;SDS011;13044;49.304;12.840;2022-09-24T15:42:52;18.77;;;12.27;;
25045;SDS011;13044;49.304;12.840;2022-09-24T15:45:20;19.88;;;12.25;;
25045;SDS011;13044;49.304;12.840;2022-09-24T15:47:49;19.10;;;11.98;;
25045;SDS011;13044;49.304;12.840;2022-09-24T15:50:17;16.52;;;11.30;;
25045;SDS011;13044;49.304;12.840;2022-09-24T15:52:50;25.15;;;14.27;;
25045;SDS011;13044;49.304;12.840;2022-09-24T15:55:49;47.72;;;27.83;;
25045;SDS011;13044;49.304;12.840;2022-09-24T15:58:20;29.67;;;18.77;;
25045;SDS011;13044;49.304;12.840;2022-09-24T16:00:48;24.20;;;16.23;;
25045;SDS011;13044;49.304;12.840;2022-09-24T16:03:17;19.20;;;13.38;;
25045;SDS011;13044;49.304;12.840;2022-09-24T16:05:55;18.65;;;14.20;;
25045;SDS011;13044;49.304;12.840;2022-09-24T16:08:25;19.25;;;14.10;;
25045;SDS011;13044;49.304;12.840;2022-09-24T16:10:52;19.00;;;14.70;;
25045;SDS011;13044;49.304;12.840;2022-09-24T16:13:19;19.10;;;13.80;;
25045;SDS011;13044;49.304;12.840;2022-09-24T16:15:50;18.73;;;12.30;;
25045;SDS011;13044;49.304;12.840;2022-09-24T16:18:17;24.48;;;15.82;;
25045;SDS011;13044;49.304;12.840;2022-09-24T16:20:44;20.15;;;15.15;;
25045;SDS011;13044;49.304;12.840;2022-09-24T16:23:14;23.80;;;14.10;;
25045;SDS011;13044;49.304;12.840;2022-09-24T16:25:52;20.27;;;13.70;;
25045;SDS011;13044;49.304;12.840;2022-09-24T16:28:25;17.45;;;13.00;;
25045;SDS011;13044;49.304;12.840;2022-09-24T16:30:53;19.33;;;12.13;;
25045;SDS011;13044;49.304;12.840;2022-09-24T16:33:20;22.65;;;12.55;;
25045;SDS011;13044;49.304;12.840;2022-09-24T16:35:47;20.08;;;12.05;;
25045;SDS011;13044;49.304;12.840;2022-09-24T16:38:14;24.17;;;12.90;;
25045;SDS011;13044;49.304;12.840;2022-09-24T16:40:48;16.42;;;12.68;;
25045;SDS011;13044;49.304;12.840;2022-09-24T16:43:17;21.48;;;13.75;;
25045;SDS011;13044;49.304;12.840;2022-09-24T16:45:44;18.55;;;13.00;;
25045;SDS011;13044;49.304;12.840;2022-09-24T16:48:10;21.63;;;13.40;;
25045;SDS011;13044;49.304;12.840;2022-09-24T16:50:38;21.75;;;13.88;;
25045;SDS011;13044;49.304;12.840;2022-09-24T16:53:05;21.42;;;13.48;;
25045;SDS011;13044;49.304;12.840;2022-09-24T16:55:33;19.60;;;13.32;;
25045;SDS011;13044;49.304;12.840;2022-09-24T16:57:59;20.55;;;15.93;;
25045;SDS011;13044;49.304;12.840;2022-09-24T17:00:26;21.00;;;16.48;;
25045;SDS011;13044;49.304;12.840;2022-09-24T17:02:53;17.25;;;13.13;;
25045;SDS011;13044;49.304;12.840;2022-09-24T17:05:20;36.25;;;23.30;;
25045;SDS011;13044;49.304;12.840;2022-09-24T17:07:48;21.98;;;15.00;;
25045;SDS011;13044;49.304;12.840;2022-09-24T17:10:15;20.23;;;14.88;;
25045;SDS011;13044;49.304;12.840;2022-09-24T17:12:44;29.70;;;16.98;;
25045;SDS011;13044;49.304;12.840;2022-09-24T17:15:15;24.27;;;15.02;;
25045;SDS011;13044;49.304;12.840;2022-09-24T17:17:46;29.42;;;17.42;;
25045;SDS011;13044;49.304;12.840;2022-09-24T17:20:16;27.95;;;17.90;;
25045;SDS011;13044;49.304;12.840;2022-09-24T17:22:44;27.67;;;15.68;;
25045;SDS011;13044;49.304;12.840;2022-09-24T17:25:14;21.50;;;14.43;;